createdAt,value
2024-04-14T00:04:17.591Z,15.72
2024-04-14T00:09:39.359Z,15.70
2024-04-14T00:15:00.983Z,15.38
2024-04-14T00:20:24.345Z,15.43
2024-04-14T00:25:46.989Z,15.25
2024-04-14T00:31:08.956Z,15.27
2024-04-14T00:36:31.084Z,15.12
2024-04-14T00:41:52.534Z,15.45
2024-04-14T00:47:14.438Z,15.14
2024-04-14T00:52:35.962Z,15.25
2024-04-14T00:57:59.035Z,14.94
2024-04-14T01:03:21.052Z,15.07
2024-04-14T01:08:42.447Z,15.04
2024-04-14T01:14:05.289Z,15.31
2024-04-14T01:19:27.024Z,15.25
2024-04-14T01:24:50.356Z,15.03
2024-04-14T01:30:12.080Z,14.92
2024-04-14T01:35:34.058Z,15.25
2024-04-14T01:40:55.671Z,15.08
2024-04-14T01:46:17.181Z,14.77
2024-04-14T01:51:38.782Z,15.04
2024-04-14T01:57:00.160Z,14.75
2024-04-14T02:02:21.533Z,15.13
2024-04-14T02:07:43.526Z,15.04
2024-04-14T02:13:04.909Z,15.03
2024-04-14T02:18:26.646Z,14.74
2024-04-14T02:23:48.269Z,15.02
2024-04-14T02:29:09.815Z,15.02
2024-04-14T02:34:31.658Z,14.76
2024-04-14T02:39:54.650Z,14.57
2024-04-14T02:45:16.875Z,14.94
2024-04-14T02:50:38.794Z,14.79
2024-04-14T02:56:00.283Z,14.70
2024-04-14T03:01:22.371Z,14.75
2024-04-14T03:06:45.570Z,15.09
2024-04-14T03:12:07.984Z,14.45
2024-04-14T03:17:29.486Z,14.52
2024-04-14T03:22:51.011Z,14.88
2024-04-14T03:28:12.414Z,15.02
2024-04-14T03:33:34.090Z,14.98
2024-04-14T03:38:55.909Z,14.85
2024-04-14T03:44:17.201Z,14.60
2024-04-14T03:49:39.650Z,14.99
2024-04-14T03:55:01.425Z,15.00
2024-04-14T04:00:23.272Z,14.98
2024-04-14T04:05:55.477Z,15.11
2024-04-14T04:11:16.843Z,15.21
2024-04-14T04:16:40.902Z,14.93
2024-04-14T04:22:03.832Z,15.11
2024-04-14T04:27:25.355Z,14.80
2024-04-14T04:32:46.953Z,15.11
2024-04-14T04:38:08.534Z,14.94
2024-04-14T04:43:30.305Z,14.90
2024-04-14T04:48:53.448Z,14.97
2024-04-14T04:54:15.283Z,15.03
2024-04-14T04:59:36.996Z,15.34
2024-04-14T05:04:58.244Z,15.05
2024-04-14T05:10:19.928Z,15.47
2024-04-14T05:15:43.045Z,15.00
2024-04-14T05:21:04.871Z,15.53
2024-04-14T05:26:26.833Z,15.40
2024-04-14T05:31:48.287Z,15.26
2024-04-14T05:37:11.794Z,15.35
2024-04-14T05:42:33.604Z,15.69
2024-04-14T05:47:58.015Z,15.80
2024-04-14T05:53:20.189Z,15.81
2024-04-14T05:58:43.300Z,16.07
2024-04-14T06:04:05.063Z,15.85
2024-04-14T06:09:26.870Z,16.15
2024-04-14T06:14:48.354Z,16.51
2024-04-14T06:20:10.140Z,16.29
2024-04-14T06:25:31.826Z,16.36
2024-04-14T06:30:53.420Z,16.58
2024-04-14T06:36:14.921Z,16.70
2024-04-14T06:41:36.480Z,16.80
2024-04-14T06:46:57.847Z,17.01
2024-04-14T06:52:19.371Z,17.25
2024-04-14T06:57:40.607Z,17.18
2024-04-14T07:03:02.042Z,17.66
2024-04-14T07:08:23.637Z,18.15
2024-04-14T07:13:44.835Z,18.23
2024-04-14T07:19:06.368Z,18.58
2024-04-14T07:24:27.444Z,18.56
2024-04-14T07:29:49.019Z,18.68
2024-04-14T07:35:10.315Z,18.73
2024-04-14T07:40:32.047Z,18.92
2024-04-14T07:45:53.908Z,19.15
2024-04-14T07:51:15.168Z,18.96
2024-04-14T07:56:36.469Z,19.36
2024-04-14T08:01:57.472Z,19.60
2024-04-14T08:07:18.833Z,19.42
2024-04-14T08:12:40.394Z,19.32
2024-04-14T08:18:03.079Z,19.02
2024-04-14T08:23:24.421Z,18.60
2024-04-14T08:28:45.589Z,18.29
2024-04-14T08:34:09.128Z,17.82
2024-04-14T08:39:30.808Z,17.72
2024-04-14T08:44:52.735Z,17.39
2024-04-14T08:50:14.300Z,17.39
2024-04-14T08:55:35.767Z,17.45
2024-04-14T09:01:05.337Z,17.12
2024-04-14T09:06:30.521Z,17.22
2024-04-14T09:11:54.868Z,17.51
2024-04-14T09:17:16.857Z,17.33
2024-04-14T09:22:38.594Z,17.52
2024-04-14T09:28:12.116Z,17.55
2024-04-14T09:33:33.719Z,17.51
2024-04-14T09:38:55.922Z,17.14
2024-04-14T09:44:20.884Z,17.38
2024-04-14T09:49:45.188Z,17.34
2024-04-14T09:55:07.824Z,17.20
2024-04-14T10:00:29.656Z,17.29
2024-04-14T10:05:51.507Z,17.38
2024-04-14T10:11:13.037Z,17.48
2024-04-14T10:16:34.443Z,17.71
2024-04-14T10:22:02.996Z,17.63
2024-04-14T10:27:24.873Z,17.94
2024-04-14T10:32:48.562Z,17.93
2024-04-14T10:38:21.553Z,18.20
2024-04-14T10:43:44.981Z,18.62
2024-04-14T10:49:06.563Z,18.62
2024-04-14T10:54:30.812Z,18.37
2024-04-14T10:59:52.164Z,18.55
2024-04-14T11:05:13.707Z,18.45
2024-04-14T11:10:35.120Z,18.77
2024-04-14T11:16:00.460Z,18.44
2024-04-14T11:21:25.359Z,18.69
2024-04-14T11:26:47.278Z,18.94
2024-04-14T11:32:28.822Z,18.82
2024-04-14T11:37:52.496Z,18.67
2024-04-14T11:43:13.735Z,18.40
2024-04-14T11:48:35.034Z,18.17
2024-04-14T11:53:56.701Z,18.19
2024-04-14T11:59:18.215Z,18.11
2024-04-14T12:04:39.513Z,17.87
2024-04-14T12:10:00.998Z,17.96
2024-04-14T12:15:22.303Z,18.14
2024-04-14T12:20:43.606Z,17.98
2024-04-14T12:26:05.403Z,17.85
2024-04-14T12:31:27.013Z,17.57
2024-04-14T12:36:49.338Z,17.62
2024-04-14T12:42:11.821Z,17.57
2024-04-14T12:47:34.586Z,17.69
2024-04-14T12:52:56.207Z,17.52
2024-04-14T12:58:17.497Z,17.32
2024-04-14T13:03:38.800Z,17.49
2024-04-14T13:09:01.210Z,17.49
2024-04-14T13:14:22.446Z,17.15
2024-04-14T13:19:43.650Z,17.25
2024-04-14T13:25:08.287Z,17.44
2024-04-14T13:30:30.079Z,17.71
2024-04-14T13:35:51.668Z,17.25
2024-04-14T13:41:13.094Z,17.48
2024-04-14T13:46:34.935Z,17.23
2024-04-14T13:51:56.103Z,17.15
2024-04-14T13:57:18.787Z,17.30
2024-04-14T14:02:40.395Z,17.31
2024-04-14T14:08:03.070Z,17.12
2024-04-14T14:13:26.905Z,17.17
2024-04-14T14:18:49.870Z,17.12
2024-04-14T14:24:11.577Z,17.15
2024-04-14T14:29:33.124Z,17.41
2024-04-14T14:35:13.325Z,17.19
2024-04-14T14:40:34.840Z,17.03
2024-04-14T14:45:55.812Z,17.27
2024-04-14T14:51:17.241Z,17.15
2024-04-14T14:56:38.845Z,17.09
2024-04-14T15:02:00.517Z,16.96
2024-04-14T15:07:22.136Z,17.01
2024-04-14T15:12:44.592Z,16.88
2024-04-14T15:18:08.901Z,16.92
2024-04-14T15:23:34.634Z,16.72
2024-04-14T15:28:56.449Z,16.72
2024-04-14T15:34:17.659Z,16.56
2024-04-14T15:39:40.452Z,16.61
2024-04-14T15:45:01.483Z,16.40
2024-04-14T15:50:23.163Z,16.65
2024-04-14T15:55:44.710Z,16.31
2024-04-14T16:01:05.845Z,16.61
2024-04-14T16:06:28.801Z,16.50
2024-04-14T16:11:50.407Z,15.99
2024-04-14T16:17:11.826Z,16.15
2024-04-14T16:22:32.967Z,16.30
2024-04-14T16:27:54.413Z,16.07
2024-04-14T16:33:16.628Z,15.92
2024-04-14T16:38:38.553Z,15.72
2024-04-14T16:44:00.782Z,16.10
2024-04-14T16:49:23.091Z,16.02
2024-04-14T16:54:45.232Z,15.73
2024-04-14T17:00:09.762Z,15.55
2024-04-14T17:05:32.692Z,15.83
2024-04-14T17:10:55.015Z,15.92
2024-04-14T17:16:17.180Z,15.42
2024-04-14T17:21:39.138Z,15.56
2024-04-14T17:27:01.542Z,15.44
2024-04-14T17:32:23.972Z,15.44
2024-04-14T17:37:46.286Z,15.36
2024-04-14T17:43:09.069Z,15.56
2024-04-14T17:48:32.019Z,14.86
2024-04-14T17:53:54.522Z,14.83
2024-04-14T17:59:17.651Z,15.35
2024-04-14T18:04:41.371Z,15.37
2024-04-14T18:10:03.269Z,14.73
2024-04-14T18:15:25.415Z,14.77
2024-04-14T18:20:49.102Z,15.10
2024-04-14T18:26:10.652Z,15.22
2024-04-14T18:31:32.418Z,15.25
2024-04-14T18:36:55.433Z,15.19
2024-04-14T18:42:17.391Z,15.15
2024-04-14T18:47:39.172Z,15.11
2024-04-14T18:53:00.893Z,14.78
2024-04-14T18:58:22.658Z,14.98
2024-04-14T19:03:44.853Z,14.98
2024-04-14T19:09:06.567Z,14.96
2024-04-14T19:14:28.443Z,14.77
2024-04-14T19:19:51.097Z,14.31
2024-04-14T19:25:13.767Z,14.35
2024-04-14T19:30:35.602Z,14.19
2024-04-14T19:35:58.516Z,14.72
2024-04-14T19:41:21.178Z,14.43
2024-04-14T19:46:43.094Z,14.27
2024-04-14T19:52:05.089Z,14.64
2024-04-14T19:57:26.931Z,13.94
2024-04-14T20:02:51.450Z,14.12
2024-04-14T20:15:52.562Z,14.53
2024-04-14T20:57:14.922Z,13.85
2024-04-14T21:02:42.776Z,13.66
2024-04-14T21:08:34.050Z,13.63
2024-04-14T21:14:57.628Z,13.94
2024-04-14T21:20:33.741Z,14.29
2024-04-14T21:32:23.129Z,14.26
2024-04-14T21:37:47.402Z,13.59
2024-04-14T21:43:13.870Z,13.44
2024-04-14T21:49:03.168Z,14.02
2024-04-14T22:01:20.291Z,13.44
2024-04-14T22:14:30.843Z,13.69
2024-04-14T22:27:09.734Z,13.72
2024-04-14T22:33:12.686Z,13.59
2024-04-14T22:45:09.860Z,13.24
2024-04-14T22:51:26.873Z,13.93
2024-04-14T22:56:55.557Z,13.47
2024-04-14T23:02:30.806Z,13.15
2024-04-14T23:07:59.571Z,13.23
2024-04-14T23:13:24.064Z,13.36
2024-04-14T23:18:45.816Z,13.21
2024-04-14T23:24:32.983Z,13.83
2024-04-14T23:30:00.466Z,13.22
2024-04-14T23:35:27.599Z,13.14
2024-04-14T23:40:53.730Z,13.07
2024-04-14T23:46:23.264Z,13.12
2024-04-14T23:51:51.297Z,13.15
2024-04-14T23:57:13.412Z,13.89
